Time;durP1;ratioP1;P1;durP2;ratioP2;P2;SDS_P1;SDS_P2;PMS_P1;PMS_P2;Temp;Humidity;BMP_temperature;BMP_pressure;BME280_temperature;BME280_humidity;BME280_pressure;Samples;Min_cycle;Max_cycle;Signal;HPM_P1;HPM_P2
2023/05/17 00:00:34;;;;;;;1.70;1.30;;;13.10;43.10;;;;;;5009705;28;20652;-76
2023/05/17 00:03:00;;;;;;;1.43;1.23;;;12.50;43.70;;;;;;4993971;28;20177;-76
2023/05/17 00:05:25;;;;;;;1.50;1.40;;;12.50;43.50;;;;;;4994272;28;20511;-76
2023/05/17 00:07:51;;;;;;;1.70;1.60;;;12.40;44.50;;;;;;4994113;28;20223;-76
2023/05/17 00:10:17;;;;;;;2.33;1.40;;;12.50;44.20;;;;;;5010939;28;20591;-76
2023/05/17 00:12:42;;;;;;;1.70;1.60;;;12.60;42.80;;;;;;5010931;28;20182;-76
2023/05/17 00:15:08;;;;;;;1.40;1.20;;;12.50;42.10;;;;;;5011955;28;20184;-76
2023/05/17 00:17:36;;;;;;;1.70;1.40;;;12.40;42.80;;;;;;5014195;28;20219;-76
2023/05/17 00:20:04;;;;;;;1.48;1.25;;;12.40;43.20;;;;;;5014232;28;20595;-76
2023/05/17 00:22:30;;;;;;;13.05;3.78;;;12.40;42.50;;;;;;4997535;28;20181;-75
2023/05/17 00:24:56;;;;;;;1.60;1.30;;;12.60;43.10;;;;;;4997833;28;20182;-75
2023/05/17 00:27:21;;;;;;;1.70;1.37;;;12.50;42.80;;;;;;5015231;28;20454;-76
2023/05/17 00:29:47;;;;;;;1.97;1.63;;;12.60;42.30;;;;;;5015484;28;20421;-76
2023/05/17 00:32:12;;;;;;;1.40;1.10;;;12.40;43.20;;;;;;5013185;28;20185;-76
2023/05/17 00:34:38;;;;;;;4.27;2.57;;;12.30;44.80;;;;;;5013714;28;20183;-76
2023/05/17 00:37:03;;;;;;;3.23;2.03;;;12.30;43.50;;;;;;5015229;28;20639;-76
2023/05/17 00:39:29;;;;;;;1.50;1.20;;;12.40;43.30;;;;;;5015708;28;20170;-76
2023/05/17 00:41:55;;;;;;;1.43;1.20;;;12.30;43.50;;;;;;5014374;28;20264;-76
2023/05/17 00:44:20;;;;;;;5.07;2.70;;;12.30;43.00;;;;;;5014268;28;20180;-76
2023/05/17 00:46:46;;;;;;;1.50;1.17;;;12.30;42.50;;;;;;5015070;28;20184;-76
2023/05/17 00:49:12;;;;;;;1.50;1.20;;;12.30;42.80;;;;;;5014469;28;20563;-75
2023/05/17 00:51:39;;;;;;;1.45;1.20;;;12.20;44.30;;;;;;4996150;28;20174;-75
2023/05/17 00:54:05;;;;;;;1.40;1.10;;;12.10;43.30;;;;;;5013909;28;20702;-76
2023/05/17 00:56:32;;;;;;;1.50;1.30;;;12.20;43.20;;;;;;5015190;28;20177;-76
2023/05/17 00:58:58;;;;;;;1.70;1.30;;;12.20;43.90;;;;;;4997768;28;20245;-76
2023/05/17 01:01:25;;;;;;;2.40;1.65;;;12.30;43.50;;;;;;5014869;28;20172;-76
2023/05/17 01:03:51;;;;;;;1.50;1.30;;;12.30;42.50;;;;;;5012901;28;20189;-76
2023/05/17 01:06:17;;;;;;;2.77;2.23;;;12.40;43.80;;;;;;5013431;28;20181;-75
2023/05/17 01:08:43;;;;;;;1.60;1.37;;;12.50;43.20;;;;;;5017858;28;20696;-76
2023/05/17 01:11:23;;;;;;;1.60;1.30;;;12.10;43.50;;;;;;5021609;28;20576;-76
2023/05/17 01:14:05;;;;;;;1.80;1.50;;;12.00;44.50;;;;;;5019089;28;20508;-76
2023/05/17 01:16:47;;;;;;;1.73;1.38;;;11.90;43.80;;;;;;5020270;28;20184;-76
2023/05/17 01:19:31;;;;;;;1.50;1.20;;;11.90;44.80;;;;;;5002902;28;20213;-75
2023/05/17 01:22:09;;;;;;;1.50;1.30;;;11.80;44.40;;;;;;5019494;28;20181;-74
2023/05/17 01:24:51;;;;;;;1.50;1.20;;;11.90;44.40;;;;;;5019307;28;20177;-75
2023/05/17 01:27:19;;;;;;;1.50;1.35;;;12.00;44.20;;;;;;5020683;28;20197;-75
2023/05/17 01:29:46;;;;;;;2.08;1.40;;;12.20;44.00;;;;;;5016994;28;20181;-75
2023/05/17 01:32:15;;;;;;;1.60;1.40;;;11.90;44.50;;;;;;4995933;28;20185;-75
2023/05/17 01:34:41;;;;;;;1.60;1.30;;;12.10;44.10;;;;;;5012582;28;20263;-75
2023/05/17 01:37:06;;;;;;;1.40;1.20;;;11.80;44.50;;;;;;5013929;28;20200;-75
2023/05/17 01:39:32;;;;;;;1.50;1.23;;;12.10;44.70;;;;;;5018282;28;20188;-75
2023/05/17 01:42:06;;;;;;;1.50;1.30;;;12.20;45.80;;;;;;5001893;28;20177;-75
2023/05/17 01:45:09;;;;;;;1.50;1.30;;;11.70;44.40;;;;;;5013035;28;20292;-75
2023/05/17 01:47:39;;;;;;;1.48;1.20;;;11.70;44.50;;;;;;5012821;28;20352;-75
2023/05/17 01:50:06;;;;;;;2.00;1.40;;;11.70;46.00;;;;;;5020279;28;20180;-75
2023/05/17 01:52:52;;;;;;;1.73;1.45;;;11.70;45.00;;;;;;5019622;28;20184;-75
2023/05/17 01:55:23;;;;;;;2.53;1.40;;;11.80;45.30;;;;;;5001629;28;20185;-75
2023/05/17 01:57:52;;;;;;;1.50;1.10;;;11.60;45.20;;;;;;5002523;28;20216;-75
2023/05/17 02:00:20;;;;;;;1.60;1.30;;;11.60;44.80;;;;;;4996151;28;20640;-75
2023/05/17 02:02:46;;;;;;;1.65;1.50;;;11.70;45.00;;;;;;5011960;28;20271;-75
2023/05/17 02:05:11;;;;;;;1.43;1.17;;;11.60;44.30;;;;;;5016382;28;20202;-75
2023/05/17 02:07:38;;;;;;;1.40;1.10;;;12.10;44.50;;;;;;5011384;28;20703;-75
2023/05/17 02:10:04;;;;;;;1.63;1.23;;;12.10;44.50;;;;;;5017080;28;20176;-75
2023/05/17 02:12:30;;;;;;;1.60;1.27;;;11.50;44.00;;;;;;4996044;28;20277;-75
2023/05/17 02:14:55;;;;;;;1.70;1.30;;;11.70;45.30;;;;;;5013558;28;20258;-75
2023/05/17 02:17:21;;;;;;;1.50;1.30;;;11.50;44.70;;;;;;5009699;28;20285;-75
2023/05/17 02:19:47;;;;;;;1.50;1.20;;;11.80;45.20;;;;;;5013754;28;20259;-75
2023/05/17 02:22:14;;;;;;;1.50;1.30;;;11.40;45.00;;;;;;4998065;28;20659;-75
2023/05/17 02:24:39;;;;;;;1.60;1.33;;;11.30;44.90;;;;;;5013014;28;20170;-75
2023/05/17 02:27:05;;;;;;;2.10;1.50;;;11.40;43.80;;;;;;5012281;28;20719;-75
2023/05/17 02:29:31;;;;;;;1.50;1.20;;;11.70;44.00;;;;;;5014529;28;20526;-75
2023/05/17 02:31:56;;;;;;;1.55;1.30;;;11.20;43.90;;;;;;5013295;28;20221;-75
2023/05/17 02:34:22;;;;;;;1.60;1.30;;;11.20;43.80;;;;;;5012465;28;20178;-75
2023/05/17 02:36:48;;;;;;;1.60;1.20;;;11.10;44.10;;;;;;5013083;28;20237;-75
2023/05/17 02:39:14;;;;;;;1.50;1.20;;;11.00;44.10;;;;;;5016121;28;20214;-75
2023/05/17 02:41:41;;;;;;;1.75;1.45;;;10.90;44.00;;;;;;4999668;28;20185;-75
2023/05/17 02:44:07;;;;;;;1.60;1.30;;;10.90;44.00;;;;;;5012472;28;20604;-75
2023/05/17 02:46:33;;;;;;;1.50;1.20;;;10.80;43.90;;;;;;5013127;28;20205;-75
2023/05/17 02:48:58;;;;;;;3.03;1.53;;;10.80;44.20;;;;;;5011492;28;20622;-75
2023/05/17 02:51:24;;;;;;;1.50;1.20;;;10.90;44.20;;;;;;5012998;28;20181;-75
2023/05/17 02:53:50;;;;;;;1.50;1.20;;;10.70;43.70;;;;;;5012467;28;20173;-75
2023/05/17 02:56:16;;;;;;;1.43;1.10;;;10.80;44.80;;;;;;5013160;28;20186;-75
2023/05/17 02:58:41;;;;;;;2.20;1.43;;;10.70;45.30;;;;;;5013450;28;20205;-75
2023/05/17 03:01:08;;;;;;;1.47;1.20;;;10.50;45.00;;;;;;5013452;28;20192;-75
2023/05/17 03:03:33;;;;;;;1.67;1.30;;;10.70;45.30;;;;;;5012332;28;20177;-75
2023/05/17 03:06:00;;;;;;;1.50;1.20;;;10.70;45.30;;;;;;5015400;28;20640;-75
2023/05/17 03:08:26;;;;;;;1.50;1.20;;;10.70;45.00;;;;;;5013700;28;20208;-75
2023/05/17 03:10:51;;;;;;;1.90;1.40;;;10.60;44.90;;;;;;5011131;28;20197;-75
2023/05/17 03:13:17;;;;;;;1.70;1.43;;;10.50;45.50;;;;;;4992452;28;20185;-75
2023/05/17 03:15:43;;;;;;;1.50;1.17;;;10.50;45.00;;;;;;5012518;28;20232;-75
2023/05/17 03:18:08;;;;;;;1.50;1.20;;;10.50;44.30;;;;;;4993657;28;20581;-75
2023/05/17 03:20:34;;;;;;;1.50;1.23;;;10.50;44.10;;;;;;5012418;28;20181;-75
2023/05/17 03:23:00;;;;;;;1.70;1.23;;;10.70;44.20;;;;;;5011694;28;20170;-76
2023/05/17 03:25:25;;;;;;;2.00;1.50;;;10.60;44.70;;;;;;5011650;28;20197;-75
2023/05/17 03:27:51;;;;;;;4.43;2.03;;;10.50;44.70;;;;;;5010788;28;20816;-75
2023/05/17 03:30:16;;;;;;;1.60;1.40;;;10.50;44.70;;;;;;4994760;28;20181;-75
2023/05/17 03:32:42;;;;;;;1.80;1.60;;;10.50;44.40;;;;;;5011754;28;20200;-76
2023/05/17 03:35:08;;;;;;;1.90;1.37;;;10.40;45.10;;;;;;5012327;28;20644;-76
2023/05/17 03:37:34;;;;;;;6.57;1.55;;;10.50;45.60;;;;;;5011979;28;20201;-75
2023/05/17 03:39:59;;;;;;;2.30;1.87;;;10.30;44.40;;;;;;5010100;28;20222;-76
2023/05/17 03:42:26;;;;;;;1.47;1.20;;;10.50;44.70;;;;;;5009791;28;20279;-76
2023/05/17 03:44:51;;;;;;;1.83;1.50;;;10.30;45.00;;;;;;5011334;28;20181;-76
2023/05/17 03:47:17;;;;;;;1.53;1.30;;;10.40;44.60;;;;;;5012102;28;20193;-75
2023/05/17 03:49:42;;;;;;;1.50;1.20;;;10.40;45.00;;;;;;5011340;28;20174;-76
2023/05/17 03:52:09;;;;;;;1.60;1.30;;;10.70;44.60;;;;;;5016141;28;20177;-76
2023/05/17 03:54:36;;;;;;;1.70;1.30;;;10.40;43.80;;;;;;4997809;28;20726;-75
2023/05/17 03:57:02;;;;;;;1.50;1.30;;;10.40;44.40;;;;;;5016048;28;20181;-75
2023/05/17 03:59:28;;;;;;;1.65;1.40;;;10.20;44.50;;;;;;4997489;28;20267;-75
2023/05/17 04:01:53;;;;;;;1.50;1.30;;;10.50;45.80;;;;;;5016050;28;20193;-75
2023/05/17 04:04:19;;;;;;;1.50;1.27;;;10.30;45.10;;;;;;5014985;28;20161;-75
2023/05/17 04:06:44;;;;;;;1.70;1.30;;;10.30;44.70;;;;;;4998328;28;20595;-75
2023/05/17 04:09:12;;;;;;;1.60;1.30;;;10.30;44.40;;;;;;5014742;28;20604;-75
2023/05/17 04:11:39;;;;;;;1.67;1.40;;;10.30;44.80;;;;;;5014566;28;20524;-75
2023/05/17 04:14:05;;;;;;;2.00;1.35;;;10.70;45.20;;;;;;5013974;28;20271;-76
2023/05/17 04:16:30;;;;;;;2.43;1.87;;;10.40;44.70;;;;;;5015624;28;20610;-76
2023/05/17 04:18:59;;;;;;;1.40;1.10;;;10.30;44.40;;;;;;4997955;28;20228;-76
2023/05/17 04:21:25;;;;;;;1.63;1.48;;;10.30;44.90;;;;;;4997034;28;20182;-75
2023/05/17 04:23:51;;;;;;;1.50;1.20;;;10.20;45.00;;;;;;5014695;28;20199;-75
2023/05/17 04:26:17;;;;;;;1.47;1.17;;;10.60;45.90;;;;;;4996165;28;20437;-76
2023/05/17 04:28:43;;;;;;;1.40;1.10;;;10.40;46.00;;;;;;5015429;28;20201;-76
2023/05/17 04:31:08;;;;;;;2.00;1.40;;;10.50;44.90;;;;;;5014698;28;20251;-76
2023/05/17 04:33:35;;;;;;;1.40;1.10;;;10.60;44.70;;;;;;5014411;28;20282;-76
2023/05/17 04:36:01;;;;;;;2.10;1.45;;;10.50;44.70;;;;;;4995345;28;20470;-76
2023/05/17 04:38:27;;;;;;;1.45;1.15;;;10.40;45.30;;;;;;5015302;28;20204;-76
2023/05/17 04:40:53;;;;;;;1.70;1.40;;;10.50;45.30;;;;;;5014011;28;20181;-76
2023/05/17 04:43:18;;;;;;;1.50;1.23;;;10.60;44.10;;;;;;5013833;28;20177;-75
2023/05/17 04:45:44;;;;;;;5.77;1.87;;;10.70;44.20;;;;;;5015065;28;20604;-76
2023/05/17 04:48:10;;;;;;;1.60;1.37;;;10.90;44.70;;;;;;5014928;28;20240;-76
2023/05/17 04:50:35;;;;;;;16.93;2.90;;;10.80;44.00;;;;;;5014853;28;20175;-76
2023/05/17 04:53:01;;;;;;;1.60;1.20;;;10.80;43.80;;;;;;4995961;28;20527;-76
2023/05/17 04:55:26;;;;;;;1.60;1.33;;;10.90;43.90;;;;;;5014720;28;20260;-76
2023/05/17 04:57:52;;;;;;;1.50;1.20;;;11.00;43.70;;;;;;5013620;28;20437;-76
2023/05/17 05:00:19;;;;;;;1.53;1.30;;;11.00;43.70;;;;;;5014521;28;20186;-76
2023/05/17 05:02:45;;;;;;;1.80;1.60;;;11.00;43.30;;;;;;4995439;28;20173;-76
2023/05/17 05:05:11;;;;;;;1.50;1.40;;;11.10;43.20;;;;;;4994718;28;20212;-76
2023/05/17 05:07:38;;;;;;;1.63;1.43;;;11.30;43.40;;;;;;5012420;28;20219;-76
2023/05/17 05:10:05;;;;;;;1.90;1.63;;;11.40;43.90;;;;;;5017712;23;20224;-77
2023/05/17 05:12:30;;;;;;;1.40;1.15;;;11.40;43.20;;;;;;5022268;28;20813;-75
2023/05/17 05:14:56;;;;;;;1.83;1.50;;;11.50;42.90;;;;;;5007754;28;20189;-76
2023/05/17 05:17:21;;;;;;;1.30;1.07;;;11.60;42.70;;;;;;5013094;28;20187;-75
2023/05/17 05:19:47;;;;;;;1.40;1.20;;;11.70;42.20;;;;;;4999314;28;20282;-75
2023/05/17 05:22:13;;;;;;;1.60;1.30;;;11.50;42.10;;;;;;4994578;28;20183;-76
2023/05/17 05:24:38;;;;;;;1.30;1.10;;;11.50;42.40;;;;;;4975085;28;20180;-75
2023/05/17 05:27:04;;;;;;;1.30;1.00;;;11.30;41.20;;;;;;4993141;28;20627;-75
2023/05/17 05:29:30;;;;;;;1.50;1.37;;;11.00;42.10;;;;;;4994193;28;20214;-75
2023/05/17 05:31:55;;;;;;;1.43;1.30;;;11.20;42.00;;;;;;4994534;28;20177;-76
2023/05/17 05:34:21;;;;;;;1.50;1.33;;;11.20;42.60;;;;;;4993526;28;20585;-76
2023/05/17 05:36:46;;;;;;;1.70;1.40;;;11.50;42.00;;;;;;4991289;28;20276;-77
2023/05/17 05:39:12;;;;;;;1.50;1.30;;;11.50;40.30;;;;;;4993478;28;20213;-75
2023/05/17 05:41:38;;;;;;;2.07;1.40;;;11.20;40.90;;;;;;4994182;28;20181;-75
2023/05/17 05:44:03;;;;;;;3.57;1.47;;;11.30;41.10;;;;;;4993525;28;20253;-75
2023/05/17 05:46:29;;;;;;;1.37;1.20;;;11.30;42.10;;;;;;4992515;28;20186;-76
2023/05/17 05:48:55;;;;;;;2.07;1.33;;;11.90;41.70;;;;;;4993476;28;20202;-77
2023/05/17 05:51:20;;;;;;;3.50;1.40;;;12.00;38.90;;;;;;4993322;28;20197;-75
2023/05/17 05:53:46;;;;;;;1.40;1.13;;;12.30;40.20;;;;;;4993167;28;20181;-76
2023/05/17 05:56:11;;;;;;;1.60;1.30;;;12.50;37.80;;;;;;4992871;28;20201;-75
2023/05/17 05:58:37;;;;;;;7.53;2.13;;;12.60;37.90;;;;;;4993504;28;20213;-76
2023/05/17 06:01:03;;;;;;;1.30;1.20;;;12.60;40.30;;;;;;4993125;28;20577;-76
2023/05/17 06:03:28;;;;;;;1.37;1.30;;;13.00;38.00;;;;;;4992047;28;20185;-76
2023/05/17 06:05:54;;;;;;;1.40;1.30;;;12.50;37.40;;;;;;4993477;28;20177;-75
2023/05/17 06:08:20;;;;;;;1.50;1.40;;;12.50;34.70;;;;;;4993285;28;20711;-76
2023/05/17 06:10:45;;;;;;;2.00;1.60;;;12.50;36.70;;;;;;4993450;28;20209;-76
2023/05/17 06:13:11;;;;;;;1.60;1.20;;;12.60;36.40;;;;;;4991454;28;20209;-76
2023/05/17 06:15:37;;;;;;;1.53;1.30;;;12.60;37.80;;;;;;4992110;28;20572;-75
2023/05/17 06:18:02;;;;;;;1.43;1.40;;;12.80;37.00;;;;;;4993421;28;20781;-75
2023/05/17 06:20:28;;;;;;;2.47;1.60;;;12.50;34.70;;;;;;4993358;28;20173;-76
2023/05/17 06:22:54;;;;;;;3.30;1.30;;;13.00;34.00;;;;;;4975034;28;20707;-77
2023/05/17 06:25:19;;;;;;;1.37;1.03;;;13.10;36.00;;;;;;4993343;28;20216;-75
2023/05/17 06:27:45;;;;;;;2.60;1.47;;;12.70;34.90;;;;;;4993120;28;20182;-76
2023/05/17 06:30:11;;;;;;;1.30;1.10;;;12.30;36.50;;;;;;4993102;28;20999;-74
2023/05/17 06:32:37;;;;;;;1.30;1.00;;;12.60;36.70;;;;;;4989608;28;20699;-71
2023/05/17 06:35:03;;;;;;;1.30;1.10;;;13.30;35.40;;;;;;4991643;28;20200;-71
2023/05/17 06:37:29;;;;;;;2.00;1.20;;;13.20;33.40;;;;;;4992958;28;20413;-71
2023/05/17 06:40:05;;;;;;;1.53;1.23;;;13.40;35.50;;;;;;4991439;28;20489;-71
2023/05/17 06:42:32;;;;;;;3.10;2.20;;;13.70;35.80;;;;;;4990443;28;20174;-70
2023/05/17 06:44:58;;;;;;;1.83;1.40;;;13.10;32.80;;;;;;4991064;28;20475;-71
2023/05/17 06:47:24;;;;;;;3.50;1.47;;;12.40;34.80;;;;;;4992817;28;20776;-71
2023/05/17 06:49:49;;;;;;;1.40;1.30;;;12.70;32.60;;;;;;4990141;28;20457;-71
2023/05/17 06:52:15;;;;;;;2.23;1.60;;;13.10;36.00;;;;;;4988733;28;20269;-72
2023/05/17 06:54:40;;;;;;;4.70;1.60;;;13.50;35.60;;;;;;4988615;28;20182;-71
2023/05/17 06:57:06;;;;;;;1.40;1.13;;;13.70;33.40;;;;;;4992165;28;20185;-70
2023/05/17 06:59:32;;;;;;;2.00;1.33;;;14.10;31.40;;;;;;4992371;28;20256;-70
2023/05/17 07:01:59;;;;;;;1.30;1.20;;;14.50;32.70;;;;;;4982784;28;20182;-68
2023/05/17 07:04:25;;;;;;;1.40;1.20;;;14.10;32.20;;;;;;4991617;28;20244;-69
2023/05/17 07:06:50;;;;;;;1.30;1.10;;;14.30;31.70;;;;;;4991583;28;20928;-69
2023/05/17 07:09:17;;;;;;;1.40;1.13;;;14.30;31.70;;;;;;4986120;28;20607;-69
2023/05/17 07:11:43;;;;;;;1.40;1.20;;;14.40;31.70;;;;;;4989815;28;20191;-71
2023/05/17 07:14:08;;;;;;;1.30;1.17;;;14.50;30.10;;;;;;4991719;28;20948;-70
2023/05/17 07:16:34;;;;;;;2.50;1.70;;;14.70;32.10;;;;;;4992285;28;20174;-69
2023/05/17 07:19:00;;;;;;;1.40;1.20;;;14.90;30.80;;;;;;4990779;28;20224;-72
2023/05/17 07:21:25;;;;;;;1.40;1.20;;;15.10;30.20;;;;;;4992265;28;20201;-72
2023/05/17 07:23:51;;;;;;;1.47;1.30;;;14.90;28.90;;;;;;4991574;28;20256;-71
2023/05/17 07:26:18;;;;;;;1.40;1.10;;;14.50;31.30;;;;;;4991969;28;20731;-70
2023/05/17 07:28:44;;;;;;;1.73;1.47;;;14.90;31.00;;;;;;4992046;28;20233;-70
2023/05/17 07:31:10;;;;;;;1.70;1.40;;;15.10;30.10;;;;;;4992263;28;20453;-70
2023/05/17 07:33:36;;;;;;;1.60;1.40;;;15.10;30.40;;;;;;4990318;28;20189;-71
2023/05/17 07:36:03;;;;;;;1.50;1.20;;;15.20;29.80;;;;;;4990562;28;20566;-71
2023/05/17 07:38:28;;;;;;;1.40;1.10;;;15.50;31.10;;;;;;4988395;28;20551;-69
2023/05/17 07:40:54;;;;;;;1.97;1.43;;;15.60;29.80;;;;;;4990169;28;20941;-72
2023/05/17 07:43:19;;;;;;;1.80;1.50;;;15.60;28.90;;;;;;4988047;28;20230;-71
2023/05/17 07:45:46;;;;;;;2.03;1.70;;;15.70;28.80;;;;;;4990797;28;20175;-71
2023/05/17 07:48:12;;;;;;;4.67;1.60;;;15.90;30.30;;;;;;4988156;28;20180;-72
2023/05/17 07:50:37;;;;;;;1.50;1.30;;;15.60;29.00;;;;;;4990800;28;20497;-71
2023/05/17 07:53:03;;;;;;;1.40;1.20;;;15.50;28.70;;;;;;4991111;28;20587;-72
2023/05/17 07:55:29;;;;;;;5.50;1.60;;;15.70;28.70;;;;;;4991728;28;20427;-70
2023/05/17 07:57:54;;;;;;;2.97;1.80;;;15.50;28.60;;;;;;4979620;28;20206;-71
2023/05/17 08:00:21;;;;;;;1.40;1.13;;;15.80;29.90;;;;;;4985337;28;20684;-70
2023/05/17 08:02:47;;;;;;;1.40;1.20;;;16.00;28.30;;;;;;4988507;28;20175;-70
2023/05/17 08:05:12;;;;;;;1.50;1.33;;;15.80;29.20;;;;;;4991745;28;20423;-70
2023/05/17 08:07:38;;;;;;;1.60;1.20;;;16.10;28.90;;;;;;4991684;28;20683;-70
2023/05/17 08:10:04;;;;;;;1.70;1.20;;;16.40;27.70;;;;;;4991570;28;20209;-69
2023/05/17 08:12:29;;;;;;;2.07;1.70;;;16.50;26.80;;;;;;4988938;28;20276;-73
2023/05/17 08:14:55;;;;;;;1.43;1.10;;;16.30;27.20;;;;;;4988666;28;20433;-71
2023/05/17 08:17:21;;;;;;;1.50;1.20;;;15.80;26.50;;;;;;4990708;28;20185;-71
2023/05/17 08:19:46;;;;;;;1.50;1.30;;;15.40;27.40;;;;;;4990502;28;20273;-70
2023/05/17 08:22:12;;;;;;;1.80;1.40;;;15.70;27.70;;;;;;4990016;28;20185;-69
2023/05/17 08:24:38;;;;;;;117.53;3.70;;;15.90;28.70;;;;;;4989536;28;20182;-70
2023/05/17 08:27:04;;;;;;;1.50;1.27;;;16.30;27.00;;;;;;4989362;28;20189;-70
2023/05/17 08:29:29;;;;;;;2.30;1.20;;;16.30;26.90;;;;;;4990350;28;20223;-70
2023/05/17 08:31:55;;;;;;;2.43;1.50;;;16.80;26.10;;;;;;4989704;28;20813;-71
2023/05/17 08:34:21;;;;;;;1.30;1.10;;;17.00;25.10;;;;;;4986043;28;20269;-70
2023/05/17 08:36:47;;;;;;;127.10;4.60;;;17.20;25.90;;;;;;4988185;28;21021;-70
2023/05/17 08:39:12;;;;;;;113.10;2.80;;;17.30;24.90;;;;;;4994185;28;20202;-70
2023/05/17 08:41:38;;;;;;;106.30;2.93;;;16.40;26.20;;;;;;4993858;28;20174;-69
2023/05/17 08:44:05;;;;;;;118.70;5.83;;;16.50;27.00;;;;;;4991676;28;20183;-70
2023/05/17 08:46:32;;;;;;;116.97;3.50;;;16.80;26.50;;;;;;4993200;28;20261;-70
2023/05/17 08:49:00;;;;;;;118.50;3.47;;;16.50;27.50;;;;;;4993411;28;20519;-69
2023/05/17 08:51:26;;;;;;;121.57;3.67;;;16.70;26.50;;;;;;4993600;28;20428;-70
2023/05/17 08:53:52;;;;;;;123.27;4.00;;;16.60;27.50;;;;;;4990481;28;20496;-70
2023/05/17 08:56:20;;;;;;;95.00;2.37;;;17.00;27.90;;;;;;4992947;28;20255;-71
2023/05/17 08:58:48;;;;;;;92.80;2.20;;;16.50;26.50;;;;;;4994149;28;20469;-73
2023/05/17 09:01:15;;;;;;;89.97;1.80;;;16.40;28.60;;;;;;4990982;28;20429;-71
2023/05/17 09:03:43;;;;;;;84.20;1.90;;;16.80;27.60;;;;;;4989253;28;20432;-71
2023/05/17 09:06:09;;;;;;;81.67;1.80;;;17.30;27.70;;;;;;4994078;28;20436;-71
2023/05/17 09:08:36;;;;;;;80.00;2.67;;;16.70;26.90;;;;;;4994647;28;20823;-71
2023/05/17 09:11:02;;;;;;;67.30;1.90;;;15.90;27.50;;;;;;4992902;28;20437;-68
2023/05/17 09:13:28;;;;;;;46.90;1.70;;;15.70;28.70;;;;;;4991974;28;21014;-69
2023/05/17 09:15:53;;;;;;;34.70;3.47;;;16.20;28.10;;;;;;4994603;28;20420;-69
2023/05/17 09:18:27;;;;;;;25.43;1.43;;;15.70;26.70;;;;;;4994458;28;20278;-69
2023/05/17 09:20:53;;;;;;;19.20;1.50;;;15.00;28.10;;;;;;4995013;28;20537;-69
2023/05/17 09:23:20;;;;;;;10.47;1.40;;;15.70;29.30;;;;;;4991225;28;20433;-72
2023/05/17 09:25:47;;;;;;;8.23;1.63;;;16.00;27.70;;;;;;4994340;28;20196;-72
2023/05/17 09:28:13;;;;;;;13.57;1.70;;;16.70;27.20;;;;;;4994167;28;20409;-72
2023/05/17 09:30:40;;;;;;;92.03;2.87;;;16.30;27.80;;;;;;4994437;28;20422;-71
2023/05/17 09:33:08;;;;;;;19.23;1.67;;;15.40;28.20;;;;;;4991946;28;20190;-71
2023/05/17 09:35:35;;;;;;;1.50;1.50;;;15.30;29.60;;;;;;4993433;28;20791;-72
2023/05/17 09:38:11;;;;;;;1.70;1.60;;;15.20;28.30;;;;;;4994211;28;21202;-71
2023/05/17 09:40:45;;;;;;;1.80;1.40;;;15.70;28.20;;;;;;4994045;28;20916;-72
2023/05/17 09:43:11;;;;;;;1.73;1.37;;;16.30;27.60;;;;;;4991914;28;20428;-71
2023/05/17 09:45:37;;;;;;;1.80;1.30;;;15.80;29.60;;;;;;4992552;28;20520;-72
2023/05/17 09:48:15;;;;;;;1.80;1.23;;;16.50;28.70;;;;;;4993614;28;20511;-71
2023/05/17 09:50:49;;;;;;;1.80;1.23;;;17.00;27.90;;;;;;4994097;28;21126;-72
2023/05/17 09:53:27;;;;;;;1.70;1.30;;;17.70;27.30;;;;;;4993215;28;20414;-70
2023/05/17 09:55:55;;;;;;;1.50;1.30;;;18.30;24.80;;;;;;4987157;28;20442;-70
2023/05/17 09:58:22;;;;;;;1.40;1.20;;;18.30;26.50;;;;;;4985392;28;20458;-69
2023/05/17 10:00:52;;;;;;;2.13;1.70;;;18.50;24.90;;;;;;4985977;28;20439;-70
2023/05/17 10:03:19;;;;;;;1.60;1.30;;;17.90;25.60;;;;;;4992621;28;20421;-69
2023/05/17 10:05:49;;;;;;;1.70;1.60;;;17.50;26.80;;;;;;4990812;28;20422;-69
2023/05/17 10:08:19;;;;;;;1.93;1.40;;;17.80;26.60;;;;;;4992281;28;21074;-69
2023/05/17 10:10:47;;;;;;;1.40;1.30;;;17.90;26.30;;;;;;4985853;28;20417;-68
2023/05/17 10:13:14;;;;;;;1.60;1.57;;;18.20;25.60;;;;;;4992092;28;20437;-69
2023/05/17 10:15:42;;;;;;;2.43;1.80;;;18.60;25.00;;;;;;4989902;28;20462;-70
2023/05/17 10:18:08;;;;;;;3.30;1.50;;;19.00;25.30;;;;;;4983544;28;20466;-68
2023/05/17 10:20:35;;;;;;;10.50;2.63;;;18.90;25.20;;;;;;4991956;28;20805;-69
2023/05/17 10:23:04;;;;;;;8.40;1.53;;;19.10;26.00;;;;;;4990649;28;20503;-69
2023/05/17 10:25:30;;;;;;;39.67;1.83;;;19.10;25.00;;;;;;4973805;28;20404;-68
2023/05/17 10:27:56;;;;;;;13.77;1.60;;;18.90;23.90;;;;;;4990072;28;20442;-68
2023/05/17 10:30:21;;;;;;;3.80;1.40;;;18.50;23.60;;;;;;4992731;28;20445;-68
2023/05/17 10:32:49;;;;;;;35.37;1.70;;;18.60;24.30;;;;;;4992318;28;20201;-69
2023/05/17 10:35:16;;;;;;;26.97;1.60;;;18.60;23.80;;;;;;4992672;28;20206;-68
2023/05/17 10:37:42;;;;;;;59.77;1.53;;;18.50;25.20;;;;;;4990268;28;20446;-68
2023/05/17 10:40:12;;;;;;;20.00;1.50;;;18.10;24.50;;;;;;4988278;28;20454;-68
2023/05/17 10:42:41;;;;;;;36.03;2.10;;;17.90;24.20;;;;;;4992243;28;20180;-68
2023/05/17 10:45:08;;;;;;;30.30;2.20;;;17.40;23.80;;;;;;4992892;28;20415;-69
2023/05/17 10:47:34;;;;;;;13.07;1.50;;;17.70;25.60;;;;;;4992921;28;20422;-68
2023/05/17 10:50:00;;;;;;;6.90;1.57;;;18.50;24.90;;;;;;4991147;28;20462;-69
2023/05/17 10:52:26;;;;;;;3.47;1.50;;;18.50;24.90;;;;;;4992351;28;20421;-68
2023/05/17 10:54:52;;;;;;;2.77;1.40;;;18.10;25.30;;;;;;4992260;28;20419;-69
2023/05/17 10:57:20;;;;;;;2.87;1.40;;;18.00;25.00;;;;;;4992882;28;20166;-70
2023/05/17 11:00:00;;;;;;;3.23;1.67;;;18.10;24.60;;;;;;4989022;28;20616;-69
2023/05/17 11:02:27;;;;;;;3.60;1.60;;;18.10;23.80;;;;;;4990069;28;20430;-69
2023/05/17 11:04:55;;;;;;;3.20;1.50;;;16.40;25.60;;;;;;4989588;28;20457;-69
2023/05/17 11:07:36;;;;;;;3.30;1.50;;;16.00;25.90;;;;;;4991102;28;20421;-69
2023/05/17 11:10:13;;;;;;;2.80;1.30;;;16.30;28.70;;;;;;5011196;23;20465;-69
2023/05/17 11:12:52;;;;;;;2.90;1.37;;;16.80;24.80;;;;;;5015712;28;20415;-69
2023/05/17 11:15:23;;;;;;;2.87;1.30;;;17.30;26.20;;;;;;5010958;28;20429;-68
2023/05/17 11:17:55;;;;;;;2.80;1.23;;;17.90;24.90;;;;;;5005243;28;20548;-71
2023/05/17 11:20:26;;;;;;;2.90;1.50;;;18.40;24.50;;;;;;5010630;28;20816;-70
2023/05/17 11:23:03;;;;;;;3.30;1.50;;;18.60;24.00;;;;;;4991710;28;20941;-70
2023/05/17 11:25:39;;;;;;;2.77;1.33;;;18.70;25.00;;;;;;4991702;28;20436;-70
2023/05/17 11:28:16;;;;;;;9.77;1.70;;;18.70;25.00;;;;;;4989554;28;20533;-69
2023/05/17 11:30:49;;;;;;;12.30;1.40;;;19.20;23.60;;;;;;4998634;28;20947;-68
2023/05/17 11:33:16;;;;;;;12.87;1.50;;;19.80;23.70;;;;;;4989952;28;20443;-70
2023/05/17 11:35:43;;;;;;;14.00;1.60;;;20.00;21.50;;;;;;4992702;28;20519;-70
2023/05/17 11:38:15;;;;;;;12.03;1.40;;;20.00;22.70;;;;;;4989802;28;20449;-70
2023/05/17 11:40:42;;;;;;;11.07;1.77;;;19.90;21.90;;;;;;5003156;28;20474;-70
2023/05/17 11:43:17;;;;;;;12.77;1.50;;;19.60;21.60;;;;;;5004562;28;20420;-70
2023/05/17 11:45:56;;;;;;;12.30;1.40;;;18.60;23.20;;;;;;5011681;28;20883;-70
2023/05/17 11:48:24;;;;;;;2.50;1.30;;;19.10;24.20;;;;;;5009095;28;20841;-70
2023/05/17 11:50:52;;;;;;;3.10;1.60;;;19.60;23.60;;;;;;4996172;28;20491;-71
2023/05/17 11:53:18;;;;;;;1.80;1.30;;;18.30;21.10;;;;;;5002684;28;20513;-70
2023/05/17 11:55:46;;;;;;;1.70;1.30;;;17.50;24.20;;;;;;5011651;28;20506;-70
2023/05/17 11:58:16;;;;;;;1.53;1.20;;;17.40;22.40;;;;;;5011368;28;20450;-70
2023/05/17 12:00:42;;;;;;;4.33;1.93;;;16.70;23.60;;;;;;5004639;28;20529;-70
2023/05/17 12:03:19;;;;;;;1.50;1.27;;;17.10;25.20;;;;;;5002700;28;20532;-71
2023/05/17 12:05:47;;;;;;;1.57;1.30;;;18.10;24.20;;;;;;5011636;28;20787;-70
2023/05/17 12:08:18;;;;;;;2.60;1.40;;;18.90;22.60;;;;;;5011578;28;20415;-70
2023/05/17 12:10:51;;;;;;;2.27;1.60;;;19.30;20.70;;;;;;5002903;28;20525;-71
2023/05/17 12:13:20;;;;;;;2.67;1.57;;;19.90;21.40;;;;;;5001898;28;20944;-70
2023/05/17 12:16:12;;;;;;;2.30;1.40;;;19.70;20.10;;;;;;5007108;28;20439;-70
2023/05/17 12:18:43;;;;;;;1.80;1.40;;;19.10;21.80;;;;;;5003554;28;20460;-71
2023/05/17 12:21:12;;;;;;;1.60;1.27;;;19.10;22.10;;;;;;5015299;28;20434;-71
2023/05/17 12:23:40;;;;;;;1.60;1.30;;;19.10;21.80;;;;;;5014464;28;20472;-71
2023/05/17 12:26:11;;;;;;;11.40;1.70;;;19.40;22.00;;;;;;5003434;28;20492;-70
2023/05/17 12:28:38;;;;;;;11.20;1.40;;;19.30;21.30;;;;;;5005399;28;20446;-71
2023/05/17 12:31:08;;;;;;;11.17;1.40;;;18.90;22.10;;;;;;5014854;28;20437;-70
2023/05/17 12:33:39;;;;;;;10.20;1.40;;;19.50;22.30;;;;;;5014404;28;20418;-71
2023/05/17 12:36:06;;;;;;;12.93;2.10;;;19.80;22.60;;;;;;5008940;28;20443;-71
2023/05/17 12:38:33;;;;;;;8.60;1.90;;;19.60;21.40;;;;;;5007568;28;20553;-71
2023/05/17 12:41:04;;;;;;;11.10;1.50;;;19.60;22.20;;;;;;5009313;28;20771;-71
2023/05/17 12:43:32;;;;;;;9.30;1.47;;;19.60;21.80;;;;;;5014001;28;20822;-71
2023/05/17 12:46:05;;;;;;;9.70;1.77;;;19.20;20.60;;;;;;5014849;28;20832;-70